createdAt,value
2022-12-25T00:00:43.104Z,7.97
2022-12-25T00:03:45.964Z,8.75
2022-12-25T00:06:48.648Z,8.38
2022-12-25T00:09:51.379Z,9.18
2022-12-25T00:12:53.878Z,8.07
2022-12-25T00:15:56.410Z,10.30
2022-12-25T00:18:59.219Z,10.40
2022-12-25T00:22:01.706Z,11.10
2022-12-25T00:25:04.540Z,11.25
2022-12-25T00:28:06.997Z,12.03
2022-12-25T00:31:17.930Z,11.23
2022-12-25T00:34:21.882Z,12.27
2022-12-25T00:37:24.243Z,12.43
2022-12-25T00:40:26.845Z,12.68
2022-12-25T00:43:29.329Z,12.77
2022-12-25T00:46:31.848Z,14.10
2022-12-25T00:49:34.433Z,13.82
2022-12-25T00:52:37.100Z,12.43
2022-12-25T00:55:39.515Z,12.25
2022-12-25T00:58:41.926Z,12.73
2022-12-25T01:01:45.337Z,11.40
2022-12-25T01:04:49.167Z,9.55
2022-12-25T01:07:51.665Z,9.82
2022-12-25T01:11:00.485Z,9.02
2022-12-25T01:14:03.319Z,7.80
2022-12-25T01:17:05.736Z,7.90
2022-12-25T01:20:09.303Z,9.88
2022-12-25T01:23:12.123Z,7.22
2022-12-25T01:26:15.821Z,7.50
2022-12-25T01:29:18.280Z,8.37
2022-12-25T01:32:21.121Z,7.23
2022-12-25T01:35:24.051Z,5.80
2022-12-25T01:38:26.532Z,7.50
2022-12-25T01:41:29.110Z,6.53
2022-12-25T01:44:37.453Z,6.60
2022-12-25T01:47:40.101Z,7.03
2022-12-25T01:50:47.662Z,5.40
2022-12-25T01:53:50.354Z,6.00
2022-12-25T01:56:55.048Z,4.90
2022-12-25T01:59:59.997Z,4.80
2022-12-25T02:03:04.471Z,6.10
2022-12-25T02:06:07.776Z,5.50
2022-12-25T02:09:10.357Z,5.07
2022-12-25T02:12:24.117Z,6.13
2022-12-25T02:15:35.263Z,5.47
2022-12-25T02:18:46.573Z,5.30
2022-12-25T02:22:22.699Z,5.60
2022-12-25T02:25:53.357Z,6.20
2022-12-25T02:29:17.364Z,6.05
2022-12-25T02:32:28.894Z,6.00
2022-12-25T02:35:31.998Z,5.97
2022-12-25T02:39:00.528Z,6.00
2022-12-25T02:42:09.012Z,6.57
2022-12-25T02:45:33.143Z,6.03
2022-12-25T02:49:04.100Z,6.67
2022-12-25T02:52:32.289Z,6.83
2022-12-25T02:55:59.805Z,7.25
2022-12-25T02:59:22.423Z,7.03
2022-12-25T03:02:45.282Z,7.53
2022-12-25T03:06:09.199Z,6.70
2022-12-25T03:09:40.895Z,6.50
2022-12-25T03:12:52.263Z,7.15
2022-12-25T03:16:14.173Z,6.95
2022-12-25T03:19:37.128Z,7.13
2022-12-25T03:23:01.613Z,6.83
2022-12-25T03:26:23.129Z,7.00
2022-12-25T03:29:49.534Z,6.53
2022-12-25T03:32:59.001Z,7.53
2022-12-25T03:36:31.622Z,7.28
2022-12-25T03:39:49.483Z,7.33
2022-12-25T03:43:19.683Z,7.33
2022-12-25T03:46:44.173Z,7.65
2022-12-25T03:50:17.395Z,7.50
2022-12-25T03:54:06.705Z,7.63
2022-12-25T03:57:29.079Z,8.37
2022-12-25T04:00:50.146Z,7.53
2022-12-25T04:04:11.718Z,9.15
2022-12-25T04:07:32.769Z,7.78
2022-12-25T04:10:53.791Z,9.25
2022-12-25T04:14:14.496Z,8.43
2022-12-25T04:17:35.436Z,7.75
2022-12-25T04:20:56.166Z,8.52
2022-12-25T04:24:17.483Z,9.38
2022-12-25T04:27:38.471Z,10.67
2022-12-25T04:30:59.690Z,10.90
2022-12-25T04:34:20.807Z,11.02
2022-12-25T04:37:23.331Z,9.77
2022-12-25T04:40:26.025Z,10.05
2022-12-25T04:43:28.795Z,9.30
2022-12-25T04:46:31.442Z,9.40
2022-12-25T04:49:34.221Z,8.98
2022-12-25T04:52:38.508Z,9.55
2022-12-25T04:55:40.959Z,9.27
2022-12-25T04:58:44.448Z,8.80
2022-12-25T05:01:47.357Z,8.83
2022-12-25T05:04:49.834Z,9.13
2022-12-25T05:07:52.622Z,8.80
2022-12-25T05:10:55.279Z,8.90
2022-12-25T05:13:58.546Z,8.80
2022-12-25T05:17:01.158Z,8.43
2022-12-25T05:20:05.369Z,7.45
2022-12-25T05:23:11.673Z,7.82
2022-12-25T05:26:22.872Z,7.70
2022-12-25T05:29:25.480Z,7.27
2022-12-25T05:32:27.873Z,7.40
2022-12-25T05:35:30.351Z,7.65
2022-12-25T05:38:33.503Z,7.30
2022-12-25T05:41:35.959Z,7.10
2022-12-25T05:44:46.247Z,7.32
2022-12-25T05:47:48.663Z,7.25
2022-12-25T05:50:51.264Z,7.18
2022-12-25T05:53:53.819Z,7.05
2022-12-25T05:56:56.292Z,6.77
2022-12-25T05:59:58.837Z,7.43
2022-12-25T06:03:01.837Z,7.50
2022-12-25T06:06:04.761Z,6.50
2022-12-25T06:09:07.225Z,6.77
2022-12-25T06:12:09.677Z,6.65
2022-12-25T06:15:12.172Z,7.82
2022-12-25T06:18:14.959Z,6.97
2022-12-25T06:21:17.685Z,7.37
2022-12-25T06:24:21.629Z,7.37
2022-12-25T06:27:24.420Z,7.57
2022-12-25T06:30:26.951Z,7.95
2022-12-25T06:33:29.487Z,9.93
2022-12-25T06:36:32.185Z,8.33
2022-12-25T06:39:34.872Z,8.68
2022-12-25T06:42:37.273Z,9.73
2022-12-25T06:45:39.759Z,8.95
2022-12-25T06:48:47.983Z,8.87
2022-12-25T06:51:50.463Z,9.10
2022-12-25T06:54:52.916Z,9.70
2022-12-25T06:57:55.445Z,9.23
2022-12-25T07:00:58.064Z,9.60
2022-12-25T07:04:04.623Z,8.73
2022-12-25T07:07:09.245Z,8.88
2022-12-25T07:10:12.164Z,9.02
2022-12-25T07:13:14.555Z,8.73
2022-12-25T07:16:17.005Z,9.30
2022-12-25T07:19:19.825Z,8.90
2022-12-25T07:22:22.367Z,8.43
2022-12-25T07:25:24.834Z,8.60
2022-12-25T07:28:28.807Z,8.77
2022-12-25T07:31:31.405Z,9.27
2022-12-25T07:34:33.871Z,9.25
2022-12-25T07:37:36.393Z,10.00
2022-12-25T07:40:38.931Z,9.23
2022-12-25T07:43:42.055Z,9.52
2022-12-25T07:46:44.893Z,10.57
2022-12-25T07:49:47.893Z,9.90
2022-12-25T07:52:50.542Z,10.70
2022-12-25T07:56:00.486Z,10.38
2022-12-25T07:59:03.640Z,12.80
2022-12-25T08:02:06.764Z,11.90
2022-12-25T08:05:09.611Z,16.00
2022-12-25T08:08:12.215Z,21.30
2022-12-25T08:11:14.779Z,25.83
2022-12-25T08:14:17.459Z,24.67
2022-12-25T08:17:19.989Z,24.92
2022-12-25T08:20:22.521Z,23.93
2022-12-25T08:23:25.177Z,22.08
2022-12-25T08:26:27.685Z,20.55
2022-12-25T08:29:30.110Z,15.07
2022-12-25T08:32:34.226Z,14.95
2022-12-25T08:35:37.297Z,15.27
2022-12-25T08:38:40.225Z,12.93
2022-12-25T08:41:42.771Z,11.80
2022-12-25T08:44:45.247Z,11.70
2022-12-25T08:47:47.753Z,12.20
2022-12-25T08:50:52.287Z,11.23
2022-12-25T08:53:59.441Z,11.25
2022-12-25T08:57:03.289Z,11.52
2022-12-25T09:00:06.422Z,10.60
2022-12-25T09:03:09.137Z,11.30
2022-12-25T09:06:14.525Z,11.87
2022-12-25T09:09:17.143Z,14.32
2022-12-25T09:12:19.830Z,13.93
2022-12-25T09:15:22.382Z,14.70
2022-12-25T09:18:25.510Z,14.90
2022-12-25T09:21:27.957Z,13.50
2022-12-25T09:24:30.760Z,13.45
2022-12-25T09:27:33.277Z,11.52
2022-12-25T09:30:35.942Z,10.93
2022-12-25T09:33:40.389Z,11.30
2022-12-25T09:36:43.006Z,10.60
2022-12-25T09:39:46.594Z,10.63
2022-12-25T09:42:49.640Z,11.32
2022-12-25T09:45:52.308Z,12.18
2022-12-25T09:49:10.946Z,12.83
2022-12-25T09:52:20.502Z,12.33
2022-12-25T09:55:29.893Z,11.02
2022-12-25T09:58:33.773Z,7.10
2022-12-25T10:02:02.464Z,7.43
2022-12-25T10:05:32.506Z,7.60
2022-12-25T10:09:25.873Z,8.73
2022-12-25T10:12:50.532Z,8.80
2022-12-25T10:16:04.164Z,10.18
2022-12-25T10:19:38.165Z,10.18
2022-12-25T10:22:52.583Z,10.00
2022-12-25T10:25:55.600Z,10.60
2022-12-25T10:29:14.805Z,10.65
2022-12-25T10:32:17.774Z,10.32
2022-12-25T10:35:22.882Z,10.02
2022-12-25T10:38:25.579Z,9.40
2022-12-25T10:41:51.604Z,9.40
2022-12-25T10:45:02.368Z,8.90
2022-12-25T10:48:07.812Z,7.68
2022-12-25T10:51:10.644Z,8.80
2022-12-25T10:54:30.363Z,9.77
2022-12-25T10:57:45.618Z,8.20
2022-12-25T11:00:58.572Z,7.30
2022-12-25T11:04:01.081Z,8.38
2022-12-25T11:07:24.317Z,8.23
2022-12-25T11:10:33.131Z,7.93
2022-12-25T11:13:41.581Z,8.03
2022-12-25T11:16:44.669Z,7.80
2022-12-25T11:19:53.925Z,6.90
2022-12-25T11:22:56.345Z,6.97
2022-12-25T11:25:58.834Z,6.80
2022-12-25T11:29:01.380Z,7.43
2022-12-25T11:32:12.886Z,7.57
2022-12-25T11:35:17.940Z,6.57
2022-12-25T11:38:20.263Z,6.40
2022-12-25T11:41:30.943Z,6.90
2022-12-25T11:44:48.821Z,7.13
2022-12-25T11:48:00.913Z,6.72
2022-12-25T11:51:05.966Z,7.28
2022-12-25T11:54:24.425Z,7.47
2022-12-25T11:57:29.906Z,7.30
2022-12-25T12:00:35.403Z,7.40
2022-12-25T12:03:41.307Z,8.20
2022-12-25T12:06:54.537Z,8.30
2022-12-25T12:10:09.567Z,7.40
2022-12-25T12:13:17.836Z,7.17
2022-12-25T12:16:20.447Z,6.67
2022-12-25T12:19:28.891Z,7.05
2022-12-25T12:22:31.447Z,6.68
2022-12-25T12:25:40.307Z,7.13
2022-12-25T12:28:46.365Z,6.47
2022-12-25T12:31:51.156Z,6.63
2022-12-25T12:34:54.647Z,7.05
2022-12-25T12:38:04.261Z,7.07
2022-12-25T12:41:08.768Z,7.32
2022-12-25T12:44:12.836Z,7.77
2022-12-25T12:47:50.660Z,8.50
2022-12-25T12:51:04.732Z,7.65
2022-12-25T12:54:24.012Z,7.82
2022-12-25T12:57:29.915Z,7.53
2022-12-25T13:00:50.270Z,7.70
2022-12-25T13:04:17.663Z,7.70
2022-12-25T13:07:44.041Z,7.60
2022-12-25T13:11:03.491Z,7.55
2022-12-25T13:14:06.206Z,7.28
2022-12-25T13:17:09.010Z,7.53
2022-12-25T13:20:28.885Z,7.43
2022-12-25T13:23:34.529Z,8.30
2022-12-25T13:26:39.347Z,7.78
2022-12-25T13:29:41.896Z,7.57
2022-12-25T13:32:45.815Z,6.27
2022-12-25T13:35:48.907Z,6.50
2022-12-25T13:38:54.034Z,5.93
2022-12-25T13:42:05.938Z,6.72
2022-12-25T13:45:14.199Z,6.80
2022-12-25T13:48:17.817Z,6.30
2022-12-25T13:51:20.616Z,7.40
2022-12-25T13:54:23.135Z,7.25
2022-12-25T13:57:37.161Z,8.32
2022-12-25T14:00:48.257Z,8.27
2022-12-25T14:03:50.917Z,8.23
2022-12-25T14:06:53.345Z,7.57
2022-12-25T14:10:01.880Z,8.68
2022-12-25T14:13:07.534Z,9.40
2022-12-25T14:16:11.453Z,9.73
2022-12-25T14:19:34.343Z,9.90
2022-12-25T14:22:38.656Z,9.87
2022-12-25T14:25:44.182Z,8.93
2022-12-25T14:28:48.980Z,9.02
2022-12-25T14:31:52.711Z,9.60
2022-12-25T14:34:59.423Z,10.60
2022-12-25T14:38:02.097Z,9.73
2022-12-25T14:41:22.611Z,10.25
2022-12-25T14:44:39.548Z,10.40
2022-12-25T14:47:58.998Z,10.02
2022-12-25T14:51:15.867Z,10.60
2022-12-25T14:54:23.192Z,11.13
2022-12-25T14:57:29.798Z,11.45
2022-12-25T15:00:36.543Z,10.50
2022-12-25T15:03:38.987Z,10.75
2022-12-25T15:07:00.487Z,10.27
2022-12-25T15:13:31.622Z,10.35
2022-12-25T15:16:49.536Z,10.38
2022-12-25T15:19:54.595Z,9.32
2022-12-25T15:23:18.925Z,9.10
2022-12-25T15:26:22.027Z,8.07
2022-12-25T15:29:52.258Z,7.82
2022-12-25T15:32:47.707Z,10.07
2022-12-25T15:35:50.162Z,11.68
2022-12-25T15:38:53.534Z,12.53
2022-12-25T15:42:10.957Z,12.70
2022-12-25T15:45:20.828Z,12.80
2022-12-25T15:48:23.836Z,12.75
2022-12-25T15:51:26.817Z,11.45
2022-12-25T15:54:30.291Z,10.73
2022-12-25T15:57:33.391Z,10.27
2022-12-25T16:00:35.876Z,10.13
2022-12-25T16:03:38.683Z,8.70
2022-12-25T16:06:41.307Z,9.38
2022-12-25T16:09:44.258Z,8.10
2022-12-25T16:12:47.060Z,7.00
2022-12-25T16:15:49.579Z,6.85
2022-12-25T16:18:52.037Z,7.57
2022-12-25T16:21:54.976Z,7.57
2022-12-25T16:24:57.845Z,8.53
2022-12-25T16:28:03.124Z,11.37
2022-12-25T16:31:05.787Z,10.25
2022-12-25T16:34:09.499Z,10.68
2022-12-25T16:37:12.715Z,10.18
2022-12-25T16:40:15.241Z,10.67
2022-12-25T16:43:23.803Z,10.67
2022-12-25T16:46:26.866Z,9.95
2022-12-25T16:49:29.440Z,9.38
2022-12-25T16:52:33.597Z,9.13
2022-12-25T16:55:39.478Z,9.03
2022-12-25T16:58:44.274Z,8.77
2022-12-25T17:01:46.891Z,10.13
2022-12-25T17:04:49.429Z,13.82
2022-12-25T17:07:51.923Z,13.27
2022-12-25T17:10:54.744Z,10.20
2022-12-25T17:14:03.649Z,9.40
2022-12-25T17:17:06.212Z,8.45
2022-12-25T17:20:09.349Z,8.88
2022-12-25T17:23:11.777Z,8.88
2022-12-25T17:26:14.239Z,8.83
2022-12-25T17:29:21.641Z,8.93
2022-12-25T17:32:24.267Z,9.25
2022-12-25T17:35:26.906Z,9.20
2022-12-25T17:38:31.451Z,10.65
2022-12-25T17:41:34.355Z,10.73
2022-12-25T17:44:36.812Z,11.40
2022-12-25T17:47:39.220Z,10.77
2022-12-25T17:50:41.903Z,11.13
2022-12-25T17:53:47.187Z,10.93
2022-12-25T17:56:49.732Z,12.27
2022-12-25T17:59:52.216Z,12.47
2022-12-25T18:02:54.716Z,12.25
2022-12-25T18:06:00.432Z,13.18
2022-12-25T18:09:06.221Z,16.45
2022-12-25T18:12:09.424Z,16.23
2022-12-25T18:15:12.538Z,13.77
2022-12-25T18:18:15.242Z,12.38
2022-12-25T18:21:17.776Z,12.20
2022-12-25T18:24:20.289Z,10.55
2022-12-25T18:27:23.119Z,10.63
2022-12-25T18:30:25.828Z,11.93
2022-12-25T18:33:28.699Z,11.65
2022-12-25T18:36:31.363Z,11.13
2022-12-25T18:39:34.190Z,11.82
2022-12-25T18:42:39.576Z,12.63
2022-12-25T18:45:42.832Z,12.40
2022-12-25T18:48:45.319Z,12.93
2022-12-25T18:51:49.093Z,12.98
2022-12-25T18:54:51.540Z,13.13
2022-12-25T18:57:54.422Z,12.77
2022-12-25T19:00:57.124Z,12.47
2022-12-25T19:04:05.218Z,13.02
2022-12-25T19:07:08.299Z,13.15
2022-12-25T19:10:10.843Z,12.98
2022-12-25T19:13:13.420Z,12.10
2022-12-25T19:16:16.487Z,12.30
2022-12-25T19:19:21.727Z,12.98
2022-12-25T19:22:24.258Z,13.18
2022-12-25T19:25:27.955Z,14.55
2022-12-25T19:28:30.371Z,13.83
2022-12-25T19:31:33.264Z,14.60
2022-12-25T19:34:36.062Z,14.45
2022-12-25T19:37:38.521Z,12.48
2022-12-25T19:41:00.444Z,13.95
2022-12-25T19:44:06.418Z,13.07
2022-12-25T19:47:10.743Z,14.30
2022-12-25T19:50:13.617Z,12.15
2022-12-25T19:53:17.518Z,12.07
2022-12-25T19:56:20.064Z,12.70
2022-12-25T19:59:22.591Z,12.80
2022-12-25T20:02:25.161Z,13.13
2022-12-25T20:05:30.821Z,13.35
2022-12-25T20:08:33.758Z,13.52
2022-12-25T20:11:37.356Z,12.98
2022-12-25T20:14:39.787Z,13.07
2022-12-25T20:17:42.309Z,13.17
2022-12-25T20:20:47.933Z,13.25
2022-12-25T20:23:52.338Z,14.18
2022-12-25T20:26:58.984Z,13.15
2022-12-25T20:30:02.253Z,12.27
2022-12-25T20:33:06.877Z,12.10
2022-12-25T20:36:09.775Z,12.20
2022-12-25T20:39:13.032Z,11.73
2022-12-25T20:42:15.528Z,11.88
2022-12-25T20:45:18.002Z,12.40
2022-12-25T20:48:21.262Z,11.90
2022-12-25T20:51:26.876Z,12.60
2022-12-25T20:54:29.350Z,13.07
2022-12-25T20:57:31.935Z,11.90
2022-12-25T21:00:34.398Z,12.33
2022-12-25T21:03:37.605Z,12.17
2022-12-25T21:06:40.215Z,13.23
2022-12-25T21:09:43.133Z,13.43
2022-12-25T21:12:45.640Z,12.52
2022-12-25T21:15:49.767Z,12.40
2022-12-25T21:18:53.975Z,13.33
2022-12-25T21:21:56.428Z,13.75
2022-12-25T21:24:58.916Z,15.43
2022-12-25T21:28:01.364Z,16.80
2022-12-25T21:31:05.696Z,17.77
2022-12-25T21:34:08.216Z,17.87
2022-12-25T21:37:11.724Z,18.60
2022-12-25T21:40:16.561Z,16.38
2022-12-25T21:43:19.878Z,16.52
2022-12-25T21:46:22.804Z,15.97
2022-12-25T21:49:44.031Z,15.23
2022-12-25T21:52:46.465Z,15.23
2022-12-25T21:56:00.633Z,14.50
2022-12-25T21:59:05.608Z,13.68
2022-12-25T22:02:11.458Z,13.03
2022-12-25T22:05:34.424Z,11.77
2022-12-25T22:08:37.171Z,12.45
2022-12-25T22:11:58.470Z,12.00
2022-12-25T22:15:07.191Z,12.23
2022-12-25T22:18:28.110Z,11.73
2022-12-25T22:21:30.629Z,10.93
2022-12-25T22:24:33.155Z,10.73
2022-12-25T22:27:38.095Z,10.93
2022-12-25T22:30:44.593Z,12.25
2022-12-25T22:33:47.111Z,13.20
2022-12-25T22:36:50.245Z,13.77
2022-12-25T22:39:52.837Z,13.80
2022-12-25T22:42:56.160Z,12.85
2022-12-25T22:46:00.296Z,12.70
2022-12-25T22:49:02.840Z,12.43
2022-12-25T22:52:05.389Z,11.93
2022-12-25T22:55:09.117Z,12.30
2022-12-25T22:58:11.580Z,11.65
2022-12-25T23:01:14.310Z,12.23
2022-12-25T23:04:17.658Z,12.00
2022-12-25T23:07:20.407Z,12.10
2022-12-25T23:10:22.884Z,11.45
2022-12-25T23:13:44.027Z,11.55
2022-12-25T23:16:46.476Z,11.38
2022-12-25T23:20:09.227Z,11.47
2022-12-25T23:23:34.633Z,11.20
2022-12-25T23:26:37.084Z,11.45
2022-12-25T23:29:41.508Z,12.77
2022-12-25T23:32:44.415Z,12.27
2022-12-25T23:35:46.938Z,12.40
2022-12-25T23:38:49.557Z,11.90
2022-12-25T23:41:52.046Z,12.85
2022-12-25T23:44:54.456Z,12.77
2022-12-25T23:47:56.822Z,12.23
2022-12-25T23:51:07.206Z,12.00
2022-12-25T23:54:15.810Z,12.10
2022-12-25T23:57:18.805Z,12.55
